Time;durP1;ratioP1;P1;durP2;ratioP2;P2;SDS_P1;SDS_P2;PMS_P1;PMS_P2;Temp;Humidity;BMP_temperature;BMP_pressure;BME280_temperature;BME280_humidity;BME280_pressure;Samples;Min_cycle;Max_cycle;Signal;HPM_P1;HPM_P2
2023/05/13 00:00:11;;;;;;;8.75;6.70;;;;;;;;;;5030249;28;20236;-69
2023/05/13 00:02:37;;;;;;;11.63;7.32;;;;;;;;;;5038002;28;20249;-69
2023/05/13 00:05:02;;;;;;;10.65;6.88;;;;;;;;;;5038797;28;20622;-69
2023/05/13 00:07:27;;;;;;;9.93;7.38;;;;;;;;;;5033916;28;20244;-69
2023/05/13 00:09:53;;;;;;;12.43;7.18;;;;;;;;;;5032908;28;20672;-69
2023/05/13 00:12:18;;;;;;;10.38;7.03;;;;;;;;;;5037261;28;20641;-69
2023/05/13 00:14:43;;;;;;;12.60;8.00;;;;;;;;;;5047775;28;20225;-69
2023/05/13 00:17:09;;;;;;;10.88;7.88;;;;;;;;;;5032091;28;20190;-69
2023/05/13 00:19:34;;;;;;;13.32;7.10;;;;;;;;;;5044323;28;20600;-70
2023/05/13 00:22:00;;;;;;;9.52;7.18;;;;;;;;;;5030461;28;20221;-69
2023/05/13 00:24:25;;;;;;;10.07;7.05;;;;;;;;;;5052374;28;20204;-69
2023/05/13 00:26:50;;;;;;;12.70;8.10;;;;;;;;;;5049148;28;20227;-68
2023/05/13 00:29:16;;;;;;;13.00;7.38;;;;;;;;;;5032980;28;20554;-70
2023/05/13 00:31:41;;;;;;;10.98;7.40;;;;;;;;;;5033770;28;20519;-69
2023/05/13 00:34:07;;;;;;;9.30;7.25;;;;;;;;;;5048179;28;20193;-70
2023/05/13 00:36:32;;;;;;;10.60;7.75;;;;;;;;;;5040763;28;20194;-69
2023/05/13 00:38:57;;;;;;;12.65;7.50;;;;;;;;;;5034189;28;20204;-69
2023/05/13 00:41:23;;;;;;;13.32;7.72;;;;;;;;;;5029368;28;20308;-70
2023/05/13 00:43:48;;;;;;;14.70;8.55;;;;;;;;;;5033514;28;20206;-69
2023/05/13 00:46:14;;;;;;;11.07;7.75;;;;;;;;;;5048542;28;20224;-69
2023/05/13 00:48:40;;;;;;;9.35;7.95;;;;;;;;;;5032923;28;20200;-69
2023/05/13 00:51:06;;;;;;;13.65;8.45;;;;;;;;;;5035145;28;20186;-69
2023/05/13 00:53:32;;;;;;;11.93;7.85;;;;;;;;;;5037505;28;20224;-69
2023/05/13 00:55:58;;;;;;;9.55;7.97;;;;;;;;;;5035951;28;20237;-70
2023/05/13 00:58:23;;;;;;;9.95;8.02;;;;;;;;;;5028120;28;20693;-69
2023/05/13 01:01:16;;;;;;;8.75;7.85;;;;;;;;;;5041666;28;20284;-69
2023/05/13 01:03:59;;;;;;;10.25;7.80;;;;;;;;;;5038456;28;20650;-69
2023/05/13 01:06:54;;;;;;;11.88;8.05;;;;;;;;;;5040776;28;20201;-70
2023/05/13 01:09:32;;;;;;;9.60;8.07;;;;;;;;;;5031064;28;20183;-70
2023/05/13 01:12:06;;;;;;;11.70;8.38;;;;;;;;;;5031051;28;20186;-69
2023/05/13 01:14:38;;;;;;;12.60;8.55;;;;;;;;;;5035963;28;20260;-69
2023/05/13 01:17:11;;;;;;;15.15;8.70;;;;;;;;;;5043095;28;20189;-69
2023/05/13 01:19:51;;;;;;;12.75;8.80;;;;;;;;;;5041698;28;20303;-69
2023/05/13 01:22:16;;;;;;;12.32;9.30;;;;;;;;;;5029819;28;20205;-69
2023/05/13 01:24:42;;;;;;;10.82;8.63;;;;;;;;;;5042289;28;20232;-70
2023/05/13 01:27:07;;;;;;;10.30;8.73;;;;;;;;;;5046542;28;20197;-69
2023/05/13 01:29:33;;;;;;;10.65;8.77;;;;;;;;;;5046335;28;20197;-69
2023/05/13 01:32:01;;;;;;;13.73;9.23;;;;;;;;;;5048150;28;20686;-69
2023/05/13 01:34:28;;;;;;;11.88;9.10;;;;;;;;;;5042131;28;20186;-69
2023/05/13 01:36:53;;;;;;;12.75;9.43;;;;;;;;;;5047038;28;20747;-69
2023/05/13 01:39:19;;;;;;;10.30;8.85;;;;;;;;;;5036232;28;20253;-69
2023/05/13 01:41:45;;;;;;;15.60;9.60;;;;;;;;;;5044813;28;20192;-69
2023/05/13 01:44:10;;;;;;;12.57;9.75;;;;;;;;;;5033236;28;20273;-69
2023/05/13 01:46:39;;;;;;;13.15;9.88;;;;;;;;;;5033888;28;20676;-69
2023/05/13 01:49:06;;;;;;;15.93;9.65;;;;;;;;;;5041035;28;20189;-69
2023/05/13 01:51:32;;;;;;;14.05;9.27;;;;;;;;;;5035310;28;20194;-69
2023/05/13 01:53:57;;;;;;;13.65;9.48;;;;;;;;;;5030799;28;20186;-69
2023/05/13 01:56:23;;;;;;;13.27;9.90;;;;;;;;;;5043841;28;20198;-69
2023/05/13 01:58:48;;;;;;;15.77;10.00;;;;;;;;;;5026041;28;20212;-70
2023/05/13 02:01:13;;;;;;;14.52;10.15;;;;;;;;;;5038437;28;20209;-69
2023/05/13 02:03:39;;;;;;;13.77;9.88;;;;;;;;;;5035702;28;20232;-70
2023/05/13 02:06:04;;;;;;;13.90;10.57;;;;;;;;;;5030368;28;20284;-69
2023/05/13 02:08:30;;;;;;;13.75;10.25;;;;;;;;;;5030855;28;20295;-69
2023/05/13 02:10:56;;;;;;;12.15;10.18;;;;;;;;;;5036764;28;20667;-69
2023/05/13 02:13:22;;;;;;;21.13;10.98;;;;;;;;;;5040633;28;20187;-69
2023/05/13 02:15:47;;;;;;;17.48;11.60;;;;;;;;;;5029784;28;20189;-72
2023/05/13 02:18:13;;;;;;;14.80;10.25;;;;;;;;;;5042806;28;20280;-69
2023/05/13 02:20:38;;;;;;;15.68;10.73;;;;;;;;;;5030256;28;20186;-69
2023/05/13 02:23:03;;;;;;;14.30;10.90;;;;;;;;;;5035728;28;20209;-70
2023/05/13 02:25:29;;;;;;;13.45;11.57;;;;;;;;;;5037783;28;20206;-70
2023/05/13 02:27:54;;;;;;;13.82;11.10;;;;;;;;;;5038540;28;20247;-70
2023/05/13 02:30:20;;;;;;;13.43;11.25;;;;;;;;;;5031073;28;20198;-70
2023/05/13 02:32:46;;;;;;;18.15;12.32;;;;;;;;;;5034075;28;20644;-70
2023/05/13 02:35:11;;;;;;;13.40;11.10;;;;;;;;;;5049118;28;20714;-72
2023/05/13 02:37:36;;;;;;;13.77;11.43;;;;;;;;;;5037561;28;20196;-69
2023/05/13 02:40:02;;;;;;;15.25;12.18;;;;;;;;;;5056193;28;20734;-69
2023/05/13 02:42:28;;;;;;;17.35;11.43;;;;;;;;;;5050043;28;20237;-70
2023/05/13 02:44:53;;;;;;;17.05;11.90;;;;;;;;;;5042405;28;20212;-70
2023/05/13 02:47:19;;;;;;;17.75;11.60;;;;;;;;;;5043566;28;20305;-70
2023/05/13 02:49:44;;;;;;;14.88;12.00;;;;;;;;;;5031013;28;20194;-70
2023/05/13 02:52:10;;;;;;;16.52;12.18;;;;;;;;;;5049755;28;20185;-70
2023/05/13 02:54:35;;;;;;;19.35;13.13;;;;;;;;;;5043280;28;20197;-69
2023/05/13 02:57:00;;;;;;;16.05;12.52;;;;;;;;;;5049083;28;20224;-69
2023/05/13 02:59:26;;;;;;;18.10;13.15;;;;;;;;;;5049384;28;20197;-70
2023/05/13 03:01:51;;;;;;;19.40;12.82;;;;;;;;;;5042450;28;20288;-70
2023/05/13 03:04:16;;;;;;;17.17;12.88;;;;;;;;;;5037456;28;20432;-69
2023/05/13 03:06:42;;;;;;;14.77;12.63;;;;;;;;;;5043334;28;20262;-70
2023/05/13 03:09:07;;;;;;;17.33;12.40;;;;;;;;;;5040608;28;20192;-69
2023/05/13 03:11:33;;;;;;;18.75;13.25;;;;;;;;;;5049450;28;20688;-69
2023/05/13 03:13:58;;;;;;;14.32;11.98;;;;;;;;;;5046136;28;20190;-69
2023/05/13 03:16:24;;;;;;;18.15;13.25;;;;;;;;;;5031296;28;20684;-69
2023/05/13 03:18:49;;;;;;;17.40;13.45;;;;;;;;;;5041809;28;20224;-69
2023/05/13 03:21:14;;;;;;;18.67;14.00;;;;;;;;;;5041257;28;20197;-70
2023/05/13 03:23:40;;;;;;;15.98;13.38;;;;;;;;;;5037379;28;20209;-69
2023/05/13 03:26:05;;;;;;;21.02;13.30;;;;;;;;;;5040283;28;20193;-69
2023/05/13 03:28:30;;;;;;;19.58;13.82;;;;;;;;;;5034925;28;20272;-69
2023/05/13 03:30:56;;;;;;;17.38;13.50;;;;;;;;;;5042795;28;20586;-69
2023/05/13 03:33:21;;;;;;;20.55;14.48;;;;;;;;;;5045563;28;20225;-69
2023/05/13 03:35:48;;;;;;;20.80;15.35;;;;;;;;;;5049618;28;20198;-69
2023/05/13 03:38:13;;;;;;;18.55;14.05;;;;;;;;;;5029112;28;20186;-70
2023/05/13 03:40:39;;;;;;;18.50;14.02;;;;;;;;;;5032791;28;20200;-69
2023/05/13 03:43:04;;;;;;;17.02;14.63;;;;;;;;;;5046896;28;20284;-70
2023/05/13 03:45:30;;;;;;;20.80;14.57;;;;;;;;;;5046371;28;20247;-71
2023/05/13 03:47:55;;;;;;;18.77;14.70;;;;;;;;;;5046377;28;20225;-70
2023/05/13 03:50:20;;;;;;;23.88;14.98;;;;;;;;;;5049808;28;20253;-71
2023/05/13 03:52:46;;;;;;;17.67;14.20;;;;;;;;;;5046962;28;20189;-69
2023/05/13 03:55:13;;;;;;;18.05;15.20;;;;;;;;;;5042111;28;20599;-70
2023/05/13 03:57:40;;;;;;;19.10;15.25;;;;;;;;;;5044889;28;20255;-70
2023/05/13 04:00:06;;;;;;;18.63;14.88;;;;;;;;;;5041130;28;20178;-69
2023/05/13 04:02:31;;;;;;;18.30;15.23;;;;;;;;;;5039125;28;20347;-69
2023/05/13 04:04:57;;;;;;;18.95;15.27;;;;;;;;;;5033637;28;20265;-70
2023/05/13 04:07:22;;;;;;;20.23;15.75;;;;;;;;;;5041290;28;20197;-69
2023/05/13 04:09:47;;;;;;;19.17;15.52;;;;;;;;;;5046299;28;20190;-70
2023/05/13 04:12:14;;;;;;;20.33;15.18;;;;;;;;;;5041874;28;20696;-70
2023/05/13 04:14:40;;;;;;;18.48;15.05;;;;;;;;;;5046727;28;20190;-69
2023/05/13 04:17:05;;;;;;;20.70;15.63;;;;;;;;;;5038590;28;20236;-70
2023/05/13 04:19:30;;;;;;;22.02;15.63;;;;;;;;;;5030226;28;20239;-70
2023/05/13 04:21:56;;;;;;;18.20;14.50;;;;;;;;;;5043811;28;20200;-70
2023/05/13 04:24:21;;;;;;;19.85;14.85;;;;;;;;;;5048700;28;20193;-70
2023/05/13 04:26:46;;;;;;;19.95;15.40;;;;;;;;;;5042626;28;20197;-70
2023/05/13 04:29:12;;;;;;;22.10;15.38;;;;;;;;;;5047756;28;20241;-69
2023/05/13 04:31:37;;;;;;;17.92;14.77;;;;;;;;;;5049028;28;20189;-70
2023/05/13 04:34:02;;;;;;;20.38;14.95;;;;;;;;;;5048070;28;20200;-70
2023/05/13 04:36:28;;;;;;;21.60;14.73;;;;;;;;;;5043069;28;20190;-70
2023/05/13 04:38:54;;;;;;;21.27;14.30;;;;;;;;;;5035876;28;20607;-70
2023/05/13 04:41:20;;;;;;;18.70;14.60;;;;;;;;;;5040365;28;20200;-70
2023/05/13 04:43:45;;;;;;;15.27;13.68;;;;;;;;;;5039646;28;20245;-73
2023/05/13 04:46:11;;;;;;;20.38;14.25;;;;;;;;;;5038459;28;20240;-69
2023/05/13 04:48:36;;;;;;;20.00;13.90;;;;;;;;;;5036796;28;20240;-69
2023/05/13 04:51:01;;;;;;;16.10;14.40;;;;;;;;;;5046008;28;20276;-70
2023/05/13 04:53:28;;;;;;;16.77;13.80;;;;;;;;;;5030628;28;20214;-69
2023/05/13 04:55:59;;;;;;;18.17;13.73;;;;;;;;;;5037376;28;20205;-70
2023/05/13 04:58:25;;;;;;;21.35;14.25;;;;;;;;;;5027556;28;20189;-69
2023/05/13 05:00:50;;;;;;;18.30;13.73;;;;;;;;;;5012333;28;20221;-69
2023/05/13 05:03:16;;;;;;;15.30;13.65;;;;;;;;;;5043259;28;20543;-70
2023/05/13 05:05:41;;;;;;;26.10;13.90;;;;;;;;;;5039015;28;20268;-69
2023/05/13 05:08:07;;;;;;;15.10;13.15;;;;;;;;;;5045367;28;20296;-69
2023/05/13 05:10:32;;;;;;;16.65;13.45;;;;;;;;;;5040428;28;20239;-69
2023/05/13 05:12:57;;;;;;;18.80;13.25;;;;;;;;;;5047643;28;20264;-68
2023/05/13 05:15:23;;;;;;;18.77;13.60;;;;;;;;;;5036211;28;20193;-69
2023/05/13 05:17:48;;;;;;;19.23;14.80;;;;;;;;;;5033654;28;20193;-70
2023/05/13 05:20:14;;;;;;;17.02;12.65;;;;;;;;;;5034400;28;20645;-69
2023/05/13 05:22:40;;;;;;;19.08;13.30;;;;;;;;;;5047192;28;20213;-69
2023/05/13 05:25:07;;;;;;;15.23;13.38;;;;;;;;;;5034561;28;20209;-69
2023/05/13 05:27:32;;;;;;;20.38;13.48;;;;;;;;;;5042003;28;20197;-69
2023/05/13 05:29:57;;;;;;;16.88;13.57;;;;;;;;;;5041627;28;20276;-69
2023/05/13 05:32:23;;;;;;;15.40;12.60;;;;;;;;;;5046936;28;20726;-70
2023/05/13 05:34:49;;;;;;;17.05;12.68;;;;;;;;;;5048111;28;20268;-70
2023/05/13 05:37:14;;;;;;;15.05;13.05;;;;;;;;;;5042253;28;20509;-70
2023/05/13 05:39:40;;;;;;;14.43;12.85;;;;;;;;;;5043920;28;20722;-70
2023/05/13 05:42:06;;;;;;;16.35;12.40;;;;;;;;;;5033229;28;20556;-71
2023/05/13 05:44:32;;;;;;;17.00;13.68;;;;;;;;;;5044549;28;20243;-70
2023/05/13 05:46:57;;;;;;;18.48;13.48;;;;;;;;;;5040961;28;20229;-70
2023/05/13 05:49:22;;;;;;;16.30;12.57;;;;;;;;;;5047200;28;20296;-71
2023/05/13 05:51:48;;;;;;;16.92;13.38;;;;;;;;;;5036080;28;20243;-70
2023/05/13 05:54:13;;;;;;;14.50;12.88;;;;;;;;;;5039914;28;20190;-70
2023/05/13 05:56:39;;;;;;;16.48;13.13;;;;;;;;;;5045738;28;20181;-69
2023/05/13 05:59:04;;;;;;;17.02;13.40;;;;;;;;;;5044608;28;20543;-69
2023/05/13 06:01:35;;;;;;;15.00;13.20;;;;;;;;;;5033254;28;20229;-69
2023/05/13 06:04:01;;;;;;;18.70;13.57;;;;;;;;;;5050604;28;20298;-70
2023/05/13 06:06:27;;;;;;;19.33;13.55;;;;;;;;;;5031770;28;20504;-70
2023/05/13 06:08:52;;;;;;;17.42;13.18;;;;;;;;;;5036527;28;20196;-70
2023/05/13 06:11:17;;;;;;;21.42;13.63;;;;;;;;;;5050993;28;20197;-69
2023/05/13 06:13:43;;;;;;;16.33;12.38;;;;;;;;;;5040821;28;20189;-69
2023/05/13 06:16:08;;;;;;;16.60;13.13;;;;;;;;;;5031295;28;20435;-69
2023/05/13 06:18:34;;;;;;;15.35;12.90;;;;;;;;;;5041762;28;20251;-69
2023/05/13 06:20:59;;;;;;;17.65;12.82;;;;;;;;;;5045283;28;20197;-70
2023/05/13 06:23:24;;;;;;;17.63;12.75;;;;;;;;;;5044236;28;20361;-69
2023/05/13 06:25:50;;;;;;;17.00;13.20;;;;;;;;;;5040655;28;20780;-69
2023/05/13 06:28:16;;;;;;;16.30;13.30;;;;;;;;;;5045856;28;20201;-69
2023/05/13 06:30:43;;;;;;;18.35;13.50;;;;;;;;;;5037750;28;20264;-70
2023/05/13 06:33:09;;;;;;;17.13;12.73;;;;;;;;;;5038709;28;20193;-68
2023/05/13 06:35:35;;;;;;;16.33;13.25;;;;;;;;;;5033820;28;20181;-70
2023/05/13 06:38:01;;;;;;;19.95;12.95;;;;;;;;;;5041984;28;20194;-69
2023/05/13 06:40:26;;;;;;;17.40;12.57;;;;;;;;;;5043331;28;20216;-68
2023/05/13 06:42:51;;;;;;;18.95;12.95;;;;;;;;;;5045665;28;20210;-68
2023/05/13 06:45:17;;;;;;;16.98;12.27;;;;;;;;;;5046596;28;20193;-71
2023/05/13 06:47:42;;;;;;;14.55;11.98;;;;;;;;;;5042747;28;20365;-69
2023/05/13 06:50:08;;;;;;;14.68;12.52;;;;;;;;;;5038966;28;20190;-70
2023/05/13 06:52:33;;;;;;;14.90;12.00;;;;;;;;;;5040871;28;20204;-70
2023/05/13 06:54:59;;;;;;;16.35;11.93;;;;;;;;;;5050287;28;20227;-68
2023/05/13 06:57:25;;;;;;;15.80;12.18;;;;;;;;;;5049787;28;20209;-70
2023/05/13 06:59:50;;;;;;;16.90;11.13;;;;;;;;;;5044712;28;20197;-70
2023/05/13 07:02:15;;;;;;;17.75;11.60;;;;;;;;;;5046427;28;20220;-72
2023/05/13 07:04:41;;;;;;;15.98;12.02;;;;;;;;;;5043630;28;20205;-70
2023/05/13 07:07:06;;;;;;;17.33;11.93;;;;;;;;;;5045155;28;20198;-70
2023/05/13 07:09:33;;;;;;;18.20;12.75;;;;;;;;;;5031559;28;20665;-70
2023/05/13 07:11:58;;;;;;;14.38;11.55;;;;;;;;;;5040686;28;20189;-70
2023/05/13 07:14:25;;;;;;;13.55;11.88;;;;;;;;;;5033407;28;20235;-72
2023/05/13 07:16:50;;;;;;;16.52;12.20;;;;;;;;;;5032874;28;20384;-71
2023/05/13 07:19:15;;;;;;;14.98;12.15;;;;;;;;;;5045948;28;20230;-70
2023/05/13 07:21:41;;;;;;;15.82;12.13;;;;;;;;;;5033093;28;20356;-71
2023/05/13 07:24:06;;;;;;;13.65;11.38;;;;;;;;;;5035933;28;20233;-72
2023/05/13 07:26:32;;;;;;;14.65;11.77;;;;;;;;;;5033339;28;20213;-71
2023/05/13 07:28:58;;;;;;;14.10;10.95;;;;;;;;;;5036057;28;20205;-70
2023/05/13 07:31:24;;;;;;;17.95;12.15;;;;;;;;;;5040046;28;20407;-71
2023/05/13 07:33:49;;;;;;;16.10;11.90;;;;;;;;;;5043868;28;20281;-72
2023/05/13 07:36:15;;;;;;;15.48;11.23;;;;;;;;;;5037435;28;20193;-71
2023/05/13 07:38:40;;;;;;;14.27;11.57;;;;;;;;;;5039166;28;20198;-70
2023/05/13 07:41:05;;;;;;;13.07;11.13;;;;;;;;;;5039025;28;20182;-70
2023/05/13 07:43:33;;;;;;;13.98;10.98;;;;;;;;;;5029283;28;20661;-71
2023/05/13 07:45:59;;;;;;;15.30;11.60;;;;;;;;;;5031923;28;20209;-67
2023/05/13 07:48:27;;;;;;;16.85;10.63;;;;;;;;;;5046936;28;20209;-71
2023/05/13 07:50:52;;;;;;;13.77;10.23;;;;;;;;;;5033417;28;20680;-70
2023/05/13 07:53:18;;;;;;;14.70;10.18;;;;;;;;;;5045276;28;20190;-68
2023/05/13 07:55:43;;;;;;;13.52;10.88;;;;;;;;;;5045502;28;20184;-69
2023/05/13 07:58:09;;;;;;;15.65;11.20;;;;;;;;;;5041097;28;20736;-69
2023/05/13 08:00:35;;;;;;;17.40;11.60;;;;;;;;;;5039565;28;20224;-70
2023/05/13 08:03:00;;;;;;;11.98;10.75;;;;;;;;;;5041825;28;20400;-70
2023/05/13 08:05:26;;;;;;;15.23;11.13;;;;;;;;;;5042213;28;20273;-69
2023/05/13 08:07:51;;;;;;;16.25;11.00;;;;;;;;;;5044495;28;20676;-69
2023/05/13 08:10:16;;;;;;;18.90;11.50;;;;;;;;;;5040642;28;20193;-69
2023/05/13 08:12:42;;;;;;;12.15;10.80;;;;;;;;;;5041491;28;20602;-70
2023/05/13 08:15:08;;;;;;;16.33;10.10;;;;;;;;;;5044526;28;20208;-70
2023/05/13 08:17:34;;;;;;;15.93;10.52;;;;;;;;;;5044202;28;20295;-69
2023/05/13 08:20:02;;;;;;;15.88;10.43;;;;;;;;;;5039472;28;20220;-69
2023/05/13 08:22:27;;;;;;;16.35;10.93;;;;;;;;;;5032839;28;20213;-70
2023/05/13 08:24:53;;;;;;;14.23;10.13;;;;;;;;;;5039850;28;20201;-69
2023/05/13 08:27:18;;;;;;;16.10;10.65;;;;;;;;;;5045396;28;20189;-70
2023/05/13 08:29:44;;;;;;;13.35;10.43;;;;;;;;;;5044343;28;20265;-69
2023/05/13 08:32:09;;;;;;;12.23;10.13;;;;;;;;;;5034816;28;20213;-69
2023/05/13 08:34:35;;;;;;;13.15;10.43;;;;;;;;;;5038264;28;20213;-69
2023/05/13 08:37:00;;;;;;;15.13;10.27;;;;;;;;;;5040729;28;20688;-70
2023/05/13 08:39:25;;;;;;;14.50;10.52;;;;;;;;;;5040384;28;20217;-70
2023/05/13 08:41:56;;;;;;;11.93;10.32;;;;;;;;;;5029361;28;20591;-68
2023/05/13 08:44:27;;;;;;;14.68;11.25;;;;;;;;;;5039722;28;20201;-68
2023/05/13 08:47:04;;;;;;;15.25;10.63;;;;;;;;;;5045861;28;20229;-69
2023/05/13 08:49:30;;;;;;;13.05;10.45;;;;;;;;;;5043878;28;20185;-69
2023/05/13 08:51:55;;;;;;;13.55;10.30;;;;;;;;;;5043048;28;20662;-69
2023/05/13 08:54:22;;;;;;;11.60;9.80;;;;;;;;;;5039688;28;20279;-69
2023/05/13 08:56:48;;;;;;;14.20;10.10;;;;;;;;;;5034858;28;20396;-69
2023/05/13 08:59:14;;;;;;;13.82;9.95;;;;;;;;;;5034464;28;20202;-69
2023/05/13 09:01:40;;;;;;;12.32;10.13;;;;;;;;;;5037062;28;20635;-70
2023/05/13 09:04:08;;;;;;;18.50;10.18;;;;;;;;;;5040159;28;20245;-70
2023/05/13 09:06:33;;;;;;;13.32;10.25;;;;;;;;;;5041314;28;20232;-71
2023/05/13 09:08:58;;;;;;;12.20;9.93;;;;;;;;;;5044965;28;20213;-70
2023/05/13 09:11:25;;;;;;;15.10;9.98;;;;;;;;;;5036211;28;20185;-70
2023/05/13 09:14:02;;;;;;;11.70;10.05;;;;;;;;;;5036912;28;20247;-71
2023/05/13 09:16:28;;;;;;;13.20;9.93;;;;;;;;;;5037437;28;20550;-71
2023/05/13 09:18:58;;;;;;;12.27;9.75;;;;;;;;;;5041493;28;20673;-71
2023/05/13 09:21:26;;;;;;;13.88;9.65;;;;;;;;;;5037911;28;20564;-71
2023/05/13 09:24:20;;;;;;;12.80;8.55;;;;;;;;;;5040023;28;20252;-72
2023/05/13 09:26:46;;;;;;;12.85;8.75;;;;;;;;;;5036814;28;20520;-71
2023/05/13 09:29:28;;;;;;;18.05;10.23;;;;;;;;;;5041457;28;20196;-70
2023/05/13 09:32:00;;;;;;;12.90;10.15;;;;;;;;;;5039952;28;20192;-69
2023/05/13 09:34:28;;;;;;;12.68;9.35;;;;;;;;;;5035613;28;20190;-70
2023/05/13 09:37:07;;;;;;;12.75;7.70;;;;;;;;;;5033990;28;20186;-71
2023/05/13 09:39:40;;;;;;;11.07;7.80;;;;;;;;;;5035814;28;20190;-72
2023/05/13 09:42:14;;;;;;;9.82;8.13;;;;;;;;;;5042888;28;20189;-71
2023/05/13 09:44:39;;;;;;;12.30;8.30;;;;;;;;;;5036034;28;20536;-71
2023/05/13 09:47:05;;;;;;;9.27;6.68;;;;;;;;;;5052501;28;20533;-71
2023/05/13 09:49:30;;;;;;;12.55;7.50;;;;;;;;;;5045389;28;20201;-70
2023/05/13 09:51:56;;;;;;;9.57;7.75;;;;;;;;;;5050286;28;20193;-71
2023/05/13 09:54:21;;;;;;;8.75;6.35;;;;;;;;;;5046715;28;20209;-71
2023/05/13 09:56:47;;;;;;;10.15;6.53;;;;;;;;;;5036860;28;20189;-70
2023/05/13 09:59:14;;;;;;;8.60;6.50;;;;;;;;;;5046946;28;20190;-72
2023/05/13 10:01:40;;;;;;;9.45;6.45;;;;;;;;;;5034091;28;20518;-71
2023/05/13 10:04:05;;;;;;;8.90;6.03;;;;;;;;;;5044937;28;20218;-70
2023/05/13 10:06:32;;;;;;;9.63;6.25;;;;;;;;;;5046910;28;20586;-70
2023/05/13 10:09:03;;;;;;;7.60;4.97;;;;;;;;;;5048885;28;20616;-71
2023/05/13 10:11:29;;;;;;;9.85;4.75;;;;;;;;;;5042222;28;20527;-70
2023/05/13 10:13:59;;;;;;;9.15;5.25;;;;;;;;;;5047154;28;20228;-71
2023/05/13 10:16:25;;;;;;;9.63;4.50;;;;;;;;;;5042559;28;20622;-71
2023/05/13 10:18:51;;;;;;;12.30;4.13;;;;;;;;;;5047484;28;20194;-71
2023/05/13 10:21:18;;;;;;;6.72;4.22;;;;;;;;;;5034784;28;20182;-70
2023/05/13 10:23:45;;;;;;;6.38;3.92;;;;;;;;;;5039456;28;20642;-70
2023/05/13 10:26:12;;;;;;;5.30;3.80;;;;;;;;;;5037171;28;20681;-70
2023/05/13 10:28:38;;;;;;;6.38;3.80;;;;;;;;;;5042532;28;20269;-71
2023/05/13 10:31:03;;;;;;;6.20;3.70;;;;;;;;;;5039374;28;20751;-71
2023/05/13 10:33:29;;;;;;;11.45;3.90;;;;;;;;;;5031695;28;20194;-70
2023/05/13 10:36:11;;;;;;;6.03;3.70;;;;;;;;;;5043883;28;20216;-70
2023/05/13 10:39:07;;;;;;;6.28;3.78;;;;;;;;;;5042185;28;20193;-71
2023/05/13 10:41:44;;;;;;;5.93;3.25;;;;;;;;;;5039736;28;20206;-71
2023/05/13 10:44:10;;;;;;;5.63;3.47;;;;;;;;;;5047240;28;20217;-70
2023/05/13 10:46:38;;;;;;;6.78;4.25;;;;;;;;;;5045463;28;20259;-71
2023/05/13 10:49:03;;;;;;;4.90;3.63;;;;;;;;;;5042181;28;20217;-72
2023/05/13 10:51:29;;;;;;;9.90;3.53;;;;;;;;;;5047311;28;20595;-71
2023/05/13 10:53:57;;;;;;;8.18;3.28;;;;;;;;;;5037502;28;20189;-71
2023/05/13 10:56:25;;;;;;;7.07;3.25;;;;;;;;;;5049425;28;20587;-70
2023/05/13 10:59:02;;;;;;;7.55;4.15;;;;;;;;;;5047367;28;20627;-70
2023/05/13 11:01:28;;;;;;;13.18;3.95;;;;;;;;;;5044535;28;20220;-70
2023/05/13 11:04:00;;;;;;;5.60;3.50;;;;;;;;;;5044531;28;20206;-71
2023/05/13 11:06:34;;;;;;;6.53;3.90;;;;;;;;;;5039902;28;20224;-71
2023/05/13 11:09:00;;;;;;;8.60;3.83;;;;;;;;;;5040375;28;20181;-71
2023/05/13 11:11:31;;;;;;;7.35;3.60;;;;;;;;;;5033441;28;20559;-71
2023/05/13 11:14:22;;;;;;;7.03;3.88;;;;;;;;;;5035991;28;20185;-71
2023/05/13 11:16:59;;;;;;;7.13;3.47;;;;;;;;;;5028231;28;20658;-70
2023/05/13 11:19:36;;;;;;;3.80;3.25;;;;;;;;;;5034016;28;20326;-71
2023/05/13 11:22:11;;;;;;;4.63;3.55;;;;;;;;;;5034606;28;20205;-70
2023/05/13 11:24:36;;;;;;;4.43;3.80;;;;;;;;;;5034301;28;20185;-69
2023/05/13 11:27:20;;;;;;;7.07;3.35;;;;;;;;;;5042247;28;20239;-70
2023/05/13 11:29:51;;;;;;;4.75;3.80;;;;;;;;;;5034205;28;20198;-72
2023/05/13 11:32:55;;;;;;;11.00;3.70;;;;;;;;;;5044172;28;20196;-70
2023/05/13 11:35:22;;;;;;;3.67;3.20;;;;;;;;;;5030648;28;20201;-71
2023/05/13 11:37:48;;;;;;;5.85;3.40;;;;;;;;;;5032172;28;20212;-70
2023/05/13 11:40:43;;;;;;;5.97;3.28;;;;;;;;;;5052426;28;20189;-70
2023/05/13 11:43:08;;;;;;;3.58;2.92;;;;;;;;;;5041085;28;20260;-70
2023/05/13 11:45:37;;;;;;;7.47;3.05;;;;;;;;;;5041001;28;20216;-73
2023/05/13 11:48:22;;;;;;;5.47;3.40;;;;;;;;;;5040026;28;20256;-71
2023/05/13 11:50:49;;;;;;;6.30;3.40;;;;;;;;;;5031028;28;20284;-70
2023/05/13 11:53:21;;;;;;;5.40;3.05;;;;;;;;;;5047806;28;20270;-71
2023/05/13 11:55:47;;;;;;;3.60;3.08;;;;;;;;;;5031869;28;20593;-70
2023/05/13 11:58:14;;;;;;;7.55;3.33;;;;;;;;;;5043470;28;20230;-70
2023/05/13 12:00:39;;;;;;;3.42;3.10;;;;;;;;;;5040420;28;20206;-72
2023/05/13 12:03:10;;;;;;;7.25;2.90;;;;;;;;;;5036550;28;20221;-72
2023/05/13 12:05:36;;;;;;;3.65;2.92;;;;;;;;;;5036657;28;20222;-70
2023/05/13 12:08:01;;;;;;;5.85;3.20;;;;;;;;;;5029332;28;20728;-71
2023/05/13 12:10:27;;;;;;;4.53;2.97;;;;;;;;;;5048428;28;20272;-68
2023/05/13 12:12:53;;;;;;;5.60;3.35;;;;;;;;;;5032799;28;20224;-69
2023/05/13 12:15:20;;;;;;;5.47;3.00;;;;;;;;;;5042676;28;20266;-70
2023/05/13 12:17:48;;;;;;;8.57;3.10;;;;;;;;;;5047654;28;20213;-69
2023/05/13 12:20:18;;;;;;;8.13;2.85;;;;;;;;;;5043874;28;20236;-68
2023/05/13 12:22:43;;;;;;;3.33;2.70;;;;;;;;;;5028593;28;20292;-70
2023/05/13 12:25:34;;;;;;;8.63;3.25;;;;;;;;;;5038759;28;20275;-69
2023/05/13 12:28:11;;;;;;;4.10;2.95;;;;;;;;;;5029029;28;20186;-69
2023/05/13 12:30:41;;;;;;;5.65;3.10;;;;;;;;;;5036671;28;20220;-70
2023/05/13 12:33:12;;;;;;;7.50;3.53;;;;;;;;;;5037305;28;20213;-70
2023/05/13 12:35:38;;;;;;;4.35;3.28;;;;;;;;;;5041982;28;20190;-69
2023/05/13 12:38:04;;;;;;;6.63;3.65;;;;;;;;;;5028910;28;20281;-69
2023/05/13 12:40:30;;;;;;;8.10;3.55;;;;;;;;;;5047770;28;20217;-69
2023/05/13 12:43:00;;;;;;;8.48;3.47;;;;;;;;;;5044089;28;20235;-69
2023/05/13 12:45:30;;;;;;;6.20;3.40;;;;;;;;;;5041693;28;20200;-69
2023/05/13 12:47:55;;;;;;;8.23;3.20;;;;;;;;;;5040792;28;20240;-70
2023/05/13 12:50:21;;;;;;;3.30;2.88;;;;;;;;;;5042284;28;20209;-69
2023/05/13 12:52:47;;;;;;;3.85;3.00;;;;;;;;;;5047426;28;20676;-69
2023/05/13 12:55:13;;;;;;;6.90;2.92;;;;;;;;;;5036123;28;20264;-68
2023/05/13 12:57:41;;;;;;;10.60;3.00;;;;;;;;;;5028132;28;20251;-69
2023/05/13 13:00:09;;;;;;;6.05;2.92;;;;;;;;;;5040888;28;20284;-69
2023/05/13 13:02:35;;;;;;;3.85;2.90;;;;;;;;;;5034182;28;20324;-69
2023/05/13 13:05:00;;;;;;;4.53;2.78;;;;;;;;;;5034903;28;20685;-69
2023/05/13 13:07:26;;;;;;;4.68;2.85;;;;;;;;;;5032263;28;20193;-70
2023/05/13 13:09:51;;;;;;;7.05;3.08;;;;;;;;;;5034143;28;20197;-69
2023/05/13 13:12:16;;;;;;;8.50;3.00;;;;;;;;;;5028191;28;20186;-69
2023/05/13 13:14:42;;;;;;;4.85;3.20;;;;;;;;;;5036793;28;20606;-70
2023/05/13 13:17:07;;;;;;;5.63;2.80;;;;;;;;;;5039225;28;20197;-70
2023/05/13 13:19:32;;;;;;;9.48;3.42;;;;;;;;;;5047821;28;20197;-70
2023/05/13 13:21:58;;;;;;;3.25;2.72;;;;;;;;;;5043383;28;20182;-71
2023/05/13 13:24:23;;;;;;;4.03;2.97;;;;;;;;;;5031047;28;20240;-70
2023/05/13 13:26:49;;;;;;;8.80;2.97;;;;;;;;;;5028465;28;20221;-69
2023/05/13 13:29:14;;;;;;;5.15;2.80;;;;;;;;;;5042842;28;20630;-69
2023/05/13 13:31:40;;;;;;;7.47;2.70;;;;;;;;;;5050487;28;20504;-70
2023/05/13 13:34:05;;;;;;;5.25;2.80;;;;;;;;;;5047335;28;20181;-71
2023/05/13 13:36:31;;;;;;;5.00;2.97;;;;;;;;;;5047966;28;20185;-71
2023/05/13 13:38:57;;;;;;;4.80;2.90;;;;;;;;;;5046353;28;20654;-70
2023/05/13 13:41:24;;;;;;;4.35;3.20;;;;;;;;;;5047482;28;20200;-70
2023/05/13 13:43:50;;;;;;;3.70;2.97;;;;;;;;;;5027128;28;20280;-70
2023/05/13 13:46:15;;;;;;;5.35;2.75;;;;;;;;;;5046988;28;20304;-71
2023/05/13 13:48:41;;;;;;;6.25;3.35;;;;;;;;;;5046799;28;20193;-69
2023/05/13 13:51:06;;;;;;;5.95;2.60;;;;;;;;;;5038120;28;20208;-69
2023/05/13 13:53:31;;;;;;;5.63;3.30;;;;;;;;;;5040532;28;20189;-69
2023/05/13 13:55:57;;;;;;;8.00;2.92;;;;;;;;;;5034647;28;20914;-71
2023/05/13 13:58:22;;;;;;;4.50;3.00;;;;;;;;;;5031804;28;20194;-69
2023/05/13 14:00:47;;;;;;;7.00;2.67;;;;;;;;;;5043386;28;20574;-69
2023/05/13 14:03:13;;;;;;;8.73;3.05;;;;;;;;;;5042749;28;20236;-69
2023/05/13 14:05:38;;;;;;;3.20;2.90;;;;;;;;;;5041996;28;20281;-69
2023/05/13 14:08:04;;;;;;;4.47;2.88;;;;;;;;;;5033991;28;20205;-71
2023/05/13 14:10:29;;;;;;;6.25;2.88;;;;;;;;;;5046792;28;20299;-69
2023/05/13 14:12:55;;;;;;;5.28;3.15;;;;;;;;;;5045391;28;20213;-69
2023/05/13 14:15:20;;;;;;;6.65;3.00;;;;;;;;;;5034909;28;20200;-70
2023/05/13 14:17:45;;;;;;;5.90;2.80;;;;;;;;;;5045265;28;20300;-69
2023/05/13 14:20:11;;;;;;;5.80;2.70;;;;;;;;;;5040691;28;20206;-69
2023/05/13 14:22:36;;;;;;;6.85;2.92;;;;;;;;;;5039709;28;20205;-69
2023/05/13 14:25:02;;;;;;;3.25;2.30;;;;;;;;;;5040089;28;20189;-68
2023/05/13 14:27:27;;;;;;;7.53;2.90;;;;;;;;;;5039221;28;20596;-69